sensor_id;sensor_type;location;lat;lon;timestamp;P1;durP1;ratioP1;P2;durP2;ratioP2
68763;SDS011;55754;52.038;5.566;2023-02-28T00:01:38;10.43;;;4.37;;
68763;SDS011;55754;52.038;5.566;2023-02-28T00:04:04;9.15;;;3.88;;
68763;SDS011;55754;52.038;5.566;2023-02-28T00:06:30;11.70;;;4.27;;
68763;SDS011;55754;52.038;5.566;2023-02-28T00:08:55;11.43;;;5.03;;
68763;SDS011;55754;52.038;5.566;2023-02-28T00:11:21;10.95;;;4.60;;
68763;SDS011;55754;52.038;5.566;2023-02-28T00:13:47;9.07;;;3.70;;
68763;SDS011;55754;52.038;5.566;2023-02-28T00:16:14;9.60;;;4.35;;
68763;SDS011;55754;52.038;5.566;2023-02-28T00:18:42;7.93;;;3.30;;
68763;SDS011;55754;52.038;5.566;2023-02-28T00:21:08;9.27;;;3.60;;
68763;SDS011;55754;52.038;5.566;2023-02-28T00:23:34;9.65;;;3.67;;
68763;SDS011;55754;52.038;5.566;2023-02-28T00:26:00;8.77;;;3.30;;
68763;SDS011;55754;52.038;5.566;2023-02-28T00:28:26;10.77;;;3.70;;
68763;SDS011;55754;52.038;5.566;2023-02-28T00:30:51;8.90;;;3.80;;
68763;SDS011;55754;52.038;5.566;2023-02-28T00:33:17;8.17;;;3.77;;
68763;SDS011;55754;52.038;5.566;2023-02-28T00:35:43;10.47;;;3.70;;
68763;SDS011;55754;52.038;5.566;2023-02-28T00:38:11;9.45;;;4.07;;
68763;SDS011;55754;52.038;5.566;2023-02-28T00:40:37;13.50;;;3.97;;
68763;SDS011;55754;52.038;5.566;2023-02-28T00:43:03;10.03;;;3.93;;
68763;SDS011;55754;52.038;5.566;2023-02-28T00:45:28;12.02;;;4.07;;
68763;SDS011;55754;52.038;5.566;2023-02-28T00:47:54;9.02;;;4.10;;
68763;SDS011;55754;52.038;5.566;2023-02-28T00:50:20;9.07;;;3.80;;
68763;SDS011;55754;52.038;5.566;2023-02-28T00:52:46;10.37;;;3.40;;
68763;SDS011;55754;52.038;5.566;2023-02-28T00:55:12;8.50;;;3.58;;
68763;SDS011;55754;52.038;5.566;2023-02-28T00:57:38;9.63;;;3.95;;
68763;SDS011;55754;52.038;5.566;2023-02-28T01:00:04;11.53;;;3.80;;
68763;SDS011;55754;52.038;5.566;2023-02-28T01:02:30;8.93;;;3.53;;
68763;SDS011;55754;52.038;5.566;2023-02-28T01:04:56;9.93;;;3.50;;
68763;SDS011;55754;52.038;5.566;2023-02-28T01:07:24;11.05;;;3.53;;
68763;SDS011;55754;52.038;5.566;2023-02-28T01:09:50;11.50;;;3.63;;
68763;SDS011;55754;52.038;5.566;2023-02-28T01:12:15;9.73;;;3.47;;
68763;SDS011;55754;52.038;5.566;2023-02-28T01:14:41;9.85;;;3.28;;
68763;SDS011;55754;52.038;5.566;2023-02-28T01:17:07;7.50;;;3.10;;
68763;SDS011;55754;52.038;5.566;2023-02-28T01:19:33;8.40;;;3.15;;
68763;SDS011;55754;52.038;5.566;2023-02-28T01:22:00;7.40;;;3.42;;
68763;SDS011;55754;52.038;5.566;2023-02-28T01:24:27;8.48;;;3.72;;
68763;SDS011;55754;52.038;5.566;2023-02-28T01:26:53;8.60;;;3.67;;
68763;SDS011;55754;52.038;5.566;2023-02-28T01:29:19;9.65;;;3.70;;
68763;SDS011;55754;52.038;5.566;2023-02-28T01:31:44;10.37;;;3.60;;
68763;SDS011;55754;52.038;5.566;2023-02-28T01:34:10;7.63;;;3.28;;
68763;SDS011;55754;52.038;5.566;2023-02-28T01:36:35;8.90;;;3.35;;
68763;SDS011;55754;52.038;5.566;2023-02-28T01:39:01;9.13;;;3.63;;
68763;SDS011;55754;52.038;5.566;2023-02-28T01:41:29;10.27;;;3.38;;
68763;SDS011;55754;52.038;5.566;2023-02-28T01:43:58;10.00;;;3.55;;
68763;SDS011;55754;52.038;5.566;2023-02-28T01:46:29;9.10;;;3.20;;
68763;SDS011;55754;52.038;5.566;2023-02-28T01:54:02;8.98;;;3.22;;
68763;SDS011;55754;52.038;5.566;2023-02-28T01:56:38;8.15;;;3.33;;
68763;SDS011;55754;52.038;5.566;2023-02-28T01:59:08;8.82;;;3.22;;
68763;SDS011;55754;52.038;5.566;2023-02-28T02:01:35;7.88;;;3.60;;
68763;SDS011;55754;52.038;5.566;2023-02-28T02:04:01;9.27;;;3.60;;
68763;SDS011;55754;52.038;5.566;2023-02-28T02:06:29;8.48;;;3.30;;
68763;SDS011;55754;52.038;5.566;2023-02-28T02:09:00;7.60;;;3.43;;
68763;SDS011;55754;52.038;5.566;2023-02-28T02:11:26;8.45;;;3.70;;
68763;SDS011;55754;52.038;5.566;2023-02-28T02:13:58;8.50;;;3.25;;
68763;SDS011;55754;52.038;5.566;2023-02-28T02:19:41;9.63;;;3.70;;
68763;SDS011;55754;52.038;5.566;2023-02-28T02:25:33;8.02;;;3.30;;
68763;SDS011;55754;52.038;5.566;2023-02-28T02:31:04;9.60;;;4.22;;
68763;SDS011;55754;52.038;5.566;2023-02-28T02:36:38;7.80;;;3.42;;
68763;SDS011;55754;52.038;5.566;2023-02-28T02:41:48;8.85;;;3.65;;
68763;SDS011;55754;52.038;5.566;2023-02-28T02:46:42;9.23;;;4.10;;
68763;SDS011;55754;52.038;5.566;2023-02-28T02:49:13;8.80;;;4.18;;
68763;SDS011;55754;52.038;5.566;2023-02-28T02:51:44;10.50;;;3.80;;
68763;SDS011;55754;52.038;5.566;2023-02-28T02:54:17;7.32;;;3.30;;
68763;SDS011;55754;52.038;5.566;2023-02-28T02:56:48;8.98;;;3.45;;
68763;SDS011;55754;52.038;5.566;2023-02-28T02:59:16;10.70;;;3.45;;
68763;SDS011;55754;52.038;5.566;2023-02-28T03:01:46;8.82;;;3.75;;
68763;SDS011;55754;52.038;5.566;2023-02-28T03:04:17;7.53;;;3.20;;
68763;SDS011;55754;52.038;5.566;2023-02-28T03:06:45;9.85;;;3.75;;
68763;SDS011;55754;52.038;5.566;2023-02-28T03:09:11;8.38;;;3.67;;
68763;SDS011;55754;52.038;5.566;2023-02-28T03:11:36;7.80;;;3.53;;
68763;SDS011;55754;52.038;5.566;2023-02-28T03:27:30;9.68;;;3.70;;
68763;SDS011;55754;52.038;5.566;2023-02-28T03:30:24;9.57;;;3.40;;
68763;SDS011;55754;52.038;5.566;2023-02-28T03:33:31;8.38;;;3.65;;
68763;SDS011;55754;52.038;5.566;2023-02-28T03:35:57;10.02;;;4.05;;
68763;SDS011;55754;52.038;5.566;2023-02-28T03:40:57;10.63;;;3.92;;
68763;SDS011;55754;52.038;5.566;2023-02-28T03:43:34;9.77;;;3.40;;
68763;SDS011;55754;52.038;5.566;2023-02-28T03:46:05;9.43;;;3.83;;
68763;SDS011;55754;52.038;5.566;2023-02-28T03:48:42;10.18;;;4.00;;
68763;SDS011;55754;52.038;5.566;2023-02-28T03:51:12;13.38;;;3.97;;
68763;SDS011;55754;52.038;5.566;2023-02-28T03:53:45;9.05;;;3.63;;
68763;SDS011;55754;52.038;5.566;2023-02-28T03:56:17;7.93;;;3.60;;
68763;SDS011;55754;52.038;5.566;2023-02-28T03:58:54;8.57;;;3.70;;
68763;SDS011;55754;52.038;5.566;2023-02-28T04:01:22;8.40;;;3.17;;
68763;SDS011;55754;52.038;5.566;2023-02-28T04:04:06;7.47;;;3.20;;
68763;SDS011;55754;52.038;5.566;2023-02-28T04:06:33;6.55;;;2.63;;
68763;SDS011;55754;52.038;5.566;2023-02-28T04:09:00;6.67;;;2.50;;
68763;SDS011;55754;52.038;5.566;2023-02-28T04:11:39;6.97;;;2.67;;
68763;SDS011;55754;52.038;5.566;2023-02-28T04:14:08;7.20;;;2.65;;
68763;SDS011;55754;52.038;5.566;2023-02-28T04:16:35;6.60;;;2.83;;
68763;SDS011;55754;52.038;5.566;2023-02-28T04:19:03;6.18;;;2.65;;
68763;SDS011;55754;52.038;5.566;2023-02-28T04:21:51;6.88;;;2.90;;
68763;SDS011;55754;52.038;5.566;2023-02-28T04:24:20;7.55;;;2.60;;
68763;SDS011;55754;52.038;5.566;2023-02-28T04:26:48;6.78;;;2.75;;
68763;SDS011;55754;52.038;5.566;2023-02-28T04:29:25;7.20;;;2.28;;
68763;SDS011;55754;52.038;5.566;2023-02-28T04:31:53;6.07;;;2.38;;
68763;SDS011;55754;52.038;5.566;2023-02-28T04:34:20;7.20;;;2.30;;
68763;SDS011;55754;52.038;5.566;2023-02-28T04:36:46;5.93;;;2.40;;
68763;SDS011;55754;52.038;5.566;2023-02-28T04:39:14;5.45;;;2.28;;
68763;SDS011;55754;52.038;5.566;2023-02-28T04:41:40;6.70;;;2.25;;
68763;SDS011;55754;52.038;5.566;2023-02-28T04:44:06;5.90;;;2.57;;
68763;SDS011;55754;52.038;5.566;2023-02-28T04:46:31;6.53;;;2.40;;
68763;SDS011;55754;52.038;5.566;2023-02-28T04:48:57;5.03;;;2.00;;
68763;SDS011;55754;52.038;5.566;2023-02-28T04:51:23;9.23;;;2.53;;
68763;SDS011;55754;52.038;5.566;2023-02-28T04:53:49;6.37;;;2.50;;
68763;SDS011;55754;52.038;5.566;2023-02-28T04:56:15;7.40;;;2.60;;
68763;SDS011;55754;52.038;5.566;2023-02-28T04:58:42;5.83;;;2.60;;
68763;SDS011;55754;52.038;5.566;2023-02-28T05:01:18;6.80;;;2.22;;
68763;SDS011;55754;52.038;5.566;2023-02-28T05:03:48;6.68;;;2.72;;
68763;SDS011;55754;52.038;5.566;2023-02-28T05:06:14;8.20;;;2.90;;
68763;SDS011;55754;52.038;5.566;2023-02-28T05:08:46;6.95;;;2.80;;
68763;SDS011;55754;52.038;5.566;2023-02-28T05:11:33;7.30;;;2.90;;
68763;SDS011;55754;52.038;5.566;2023-02-28T05:14:10;6.78;;;2.78;;
68763;SDS011;55754;52.038;5.566;2023-02-28T05:16:37;6.50;;;2.63;;
68763;SDS011;55754;52.038;5.566;2023-02-28T05:19:02;6.20;;;2.30;;
68763;SDS011;55754;52.038;5.566;2023-02-28T05:21:32;6.65;;;2.83;;
68763;SDS011;55754;52.038;5.566;2023-02-28T05:23:59;6.83;;;2.47;;
68763;SDS011;55754;52.038;5.566;2023-02-28T05:26:26;6.40;;;2.40;;
68763;SDS011;55754;52.038;5.566;2023-02-28T05:28:53;5.80;;;2.50;;
68763;SDS011;55754;52.038;5.566;2023-02-28T05:31:20;6.13;;;2.65;;
68763;SDS011;55754;52.038;5.566;2023-02-28T05:33:46;6.40;;;2.88;;
68763;SDS011;55754;52.038;5.566;2023-02-28T05:36:12;5.80;;;2.83;;
68763;SDS011;55754;52.038;5.566;2023-02-28T05:38:38;8.32;;;3.10;;
68763;SDS011;55754;52.038;5.566;2023-02-28T05:41:07;10.70;;;3.93;;
68763;SDS011;55754;52.038;5.566;2023-02-28T05:43:34;7.85;;;3.10;;
68763;SDS011;55754;52.038;5.566;2023-02-28T05:46:04;10.07;;;3.85;;
68763;SDS011;55754;52.038;5.566;2023-02-28T05:48:31;8.90;;;3.00;;
68763;SDS011;55754;52.038;5.566;2023-02-28T05:51:01;8.97;;;2.93;;
68763;SDS011;55754;52.038;5.566;2023-02-28T05:53:28;8.95;;;3.05;;
68763;SDS011;55754;52.038;5.566;2023-02-28T05:55:54;8.35;;;3.05;;
68763;SDS011;55754;52.038;5.566;2023-02-28T05:58:20;6.20;;;2.90;;
68763;SDS011;55754;52.038;5.566;2023-02-28T06:00:46;8.95;;;3.40;;
68763;SDS011;55754;52.038;5.566;2023-02-28T06:03:12;7.45;;;3.00;;
68763;SDS011;55754;52.038;5.566;2023-02-28T06:05:37;7.90;;;3.30;;
68763;SDS011;55754;52.038;5.566;2023-02-28T06:08:03;6.82;;;3.03;;
68763;SDS011;55754;52.038;5.566;2023-02-28T06:10:30;7.25;;;3.05;;
68763;SDS011;55754;52.038;5.566;2023-02-28T06:12:59;7.50;;;3.07;;
68763;SDS011;55754;52.038;5.566;2023-02-28T06:15:27;6.50;;;3.03;;
68763;SDS011;55754;52.038;5.566;2023-02-28T06:17:53;6.60;;;2.83;;
68763;SDS011;55754;52.038;5.566;2023-02-28T06:20:21;7.33;;;3.00;;
68763;SDS011;55754;52.038;5.566;2023-02-28T06:22:47;8.55;;;3.30;;
68763;SDS011;55754;52.038;5.566;2023-02-28T06:25:12;9.30;;;3.83;;
68763;SDS011;55754;52.038;5.566;2023-02-28T06:27:38;9.27;;;3.47;;
68763;SDS011;55754;52.038;5.566;2023-02-28T06:30:04;6.90;;;3.10;;
68763;SDS011;55754;52.038;5.566;2023-02-28T06:32:30;9.98;;;3.45;;
68763;SDS011;55754;52.038;5.566;2023-02-28T06:34:55;7.97;;;3.67;;
68763;SDS011;55754;52.038;5.566;2023-02-28T06:37:22;10.43;;;3.47;;
68763;SDS011;55754;52.038;5.566;2023-02-28T06:39:51;9.20;;;3.42;;
68763;SDS011;55754;52.038;5.566;2023-02-28T06:42:16;7.65;;;3.20;;
68763;SDS011;55754;52.038;5.566;2023-02-28T06:44:42;8.43;;;3.53;;
68763;SDS011;55754;52.038;5.566;2023-02-28T06:47:08;8.38;;;3.70;;
68763;SDS011;55754;52.038;5.566;2023-02-28T06:49:34;6.80;;;2.73;;
68763;SDS011;55754;52.038;5.566;2023-02-28T06:52:00;7.55;;;2.90;;
68763;SDS011;55754;52.038;5.566;2023-02-28T06:54:26;7.95;;;3.00;;
68763;SDS011;55754;52.038;5.566;2023-02-28T06:56:52;8.53;;;3.63;;
68763;SDS011;55754;52.038;5.566;2023-02-28T06:59:19;8.80;;;3.60;;
68763;SDS011;55754;52.038;5.566;2023-02-28T07:01:45;11.40;;;4.03;;
68763;SDS011;55754;52.038;5.566;2023-02-28T07:04:10;10.63;;;3.97;;
68763;SDS011;55754;52.038;5.566;2023-02-28T07:06:37;9.00;;;4.22;;
68763;SDS011;55754;52.038;5.566;2023-02-28T07:09:03;10.30;;;4.30;;
68763;SDS011;55754;52.038;5.566;2023-02-28T07:11:29;8.93;;;4.20;;
68763;SDS011;55754;52.038;5.566;2023-02-28T07:13:55;13.10;;;4.30;;
68763;SDS011;55754;52.038;5.566;2023-02-28T07:16:22;11.57;;;4.15;;
68763;SDS011;55754;52.038;5.566;2023-02-28T07:18:49;9.35;;;4.32;;
68763;SDS011;55754;52.038;5.566;2023-02-28T07:21:16;11.20;;;4.17;;
68763;SDS011;55754;52.038;5.566;2023-02-28T07:23:42;11.13;;;4.30;;
68763;SDS011;55754;52.038;5.566;2023-02-28T07:26:12;10.07;;;4.47;;
68763;SDS011;55754;52.038;5.566;2023-02-28T07:28:42;9.63;;;4.50;;
68763;SDS011;55754;52.038;5.566;2023-02-28T07:31:08;13.52;;;4.82;;
68763;SDS011;55754;52.038;5.566;2023-02-28T07:33:42;13.35;;;4.63;;
68763;SDS011;55754;52.038;5.566;2023-02-28T07:36:17;10.50;;;4.57;;
68763;SDS011;55754;52.038;5.566;2023-02-28T07:38:46;11.70;;;4.53;;
68763;SDS011;55754;52.038;5.566;2023-02-28T07:41:14;10.45;;;4.13;;
68763;SDS011;55754;52.038;5.566;2023-02-28T07:43:43;7.75;;;4.00;;
68763;SDS011;55754;52.038;5.566;2023-02-28T07:46:10;10.98;;;4.22;;
68763;SDS011;55754;52.038;5.566;2023-02-28T07:48:37;11.32;;;4.05;;
68763;SDS011;55754;52.038;5.566;2023-02-28T07:51:03;8.07;;;3.50;;
68763;SDS011;55754;52.038;5.566;2023-02-28T07:53:29;8.88;;;3.60;;
68763;SDS011;55754;52.038;5.566;2023-02-28T07:55:56;8.63;;;3.35;;
68763;SDS011;55754;52.038;5.566;2023-02-28T07:58:22;8.23;;;3.60;;
68763;SDS011;55754;52.038;5.566;2023-02-28T08:00:48;10.70;;;3.25;;
68763;SDS011;55754;52.038;5.566;2023-02-28T08:03:17;10.82;;;3.45;;
68763;SDS011;55754;52.038;5.566;2023-02-28T08:05:43;8.83;;;3.30;;
68763;SDS011;55754;52.038;5.566;2023-02-28T08:08:10;7.95;;;3.17;;
68763;SDS011;55754;52.038;5.566;2023-02-28T08:10:36;11.57;;;3.30;;
68763;SDS011;55754;52.038;5.566;2023-02-28T08:13:02;11.27;;;3.37;;
68763;SDS011;55754;52.038;5.566;2023-02-28T08:15:28;8.27;;;2.90;;
68763;SDS011;55754;52.038;5.566;2023-02-28T08:17:53;10.10;;;2.83;;
68763;SDS011;55754;52.038;5.566;2023-02-28T08:20:21;9.30;;;2.83;;
68763;SDS011;55754;52.038;5.566;2023-02-28T08:22:47;6.72;;;2.40;;
68763;SDS011;55754;52.038;5.566;2023-02-28T08:25:13;6.47;;;2.20;;
68763;SDS011;55754;52.038;5.566;2023-02-28T08:27:39;5.43;;;2.00;;
68763;SDS011;55754;52.038;5.566;2023-02-28T08:30:04;4.53;;;1.80;;
68763;SDS011;55754;52.038;5.566;2023-02-28T08:32:31;5.53;;;2.30;;
68763;SDS011;55754;52.038;5.566;2023-02-28T08:34:58;6.70;;;1.85;;
68763;SDS011;55754;52.038;5.566;2023-02-28T08:37:24;5.80;;;1.80;;
68763;SDS011;55754;52.038;5.566;2023-02-28T08:39:50;5.60;;;2.17;;
68763;SDS011;55754;52.038;5.566;2023-02-28T08:42:16;5.80;;;1.85;;
68763;SDS011;55754;52.038;5.566;2023-02-28T08:44:41;5.00;;;1.90;;
68763;SDS011;55754;52.038;5.566;2023-02-28T08:47:13;4.95;;;2.00;;
68763;SDS011;55754;52.038;5.566;2023-02-28T08:49:38;5.20;;;1.90;;
68763;SDS011;55754;52.038;5.566;2023-02-28T08:52:04;5.70;;;1.97;;
68763;SDS011;55754;52.038;5.566;2023-02-28T08:54:29;4.78;;;1.92;;
68763;SDS011;55754;52.038;5.566;2023-02-28T08:56:57;5.00;;;2.10;;
68763;SDS011;55754;52.038;5.566;2023-02-28T08:59:22;4.70;;;1.60;;
68763;SDS011;55754;52.038;5.566;2023-02-28T09:01:48;5.57;;;1.80;;
68763;SDS011;55754;52.038;5.566;2023-02-28T09:04:13;3.75;;;1.42;;
68763;SDS011;55754;52.038;5.566;2023-02-28T09:06:39;5.20;;;1.80;;
68763;SDS011;55754;52.038;5.566;2023-02-28T09:09:05;5.30;;;1.70;;
68763;SDS011;55754;52.038;5.566;2023-02-28T09:11:32;3.65;;;1.52;;
68763;SDS011;55754;52.038;5.566;2023-02-28T09:13:59;5.35;;;1.65;;
68763;SDS011;55754;52.038;5.566;2023-02-28T09:16:28;6.30;;;1.80;;
68763;SDS011;55754;52.038;5.566;2023-02-28T09:18:55;5.65;;;1.80;;
68763;SDS011;55754;52.038;5.566;2023-02-28T09:21:21;7.77;;;1.30;;
68763;SDS011;55754;52.038;5.566;2023-02-28T09:23:47;15.63;;;1.50;;
68763;SDS011;55754;52.038;5.566;2023-02-28T09:26:22;6.97;;;2.17;;
68763;SDS011;55754;52.038;5.566;2023-02-28T09:28:49;5.07;;;1.70;;
68763;SDS011;55754;52.038;5.566;2023-02-28T09:31:16;4.93;;;1.85;;
68763;SDS011;55754;52.038;5.566;2023-02-28T09:33:50;4.38;;;1.60;;
68763;SDS011;55754;52.038;5.566;2023-02-28T09:36:17;5.07;;;2.20;;
68763;SDS011;55754;52.038;5.566;2023-02-28T09:38:43;5.30;;;2.07;;
68763;SDS011;55754;52.038;5.566;2023-02-28T09:41:24;5.18;;;2.00;;
68763;SDS011;55754;52.038;5.566;2023-02-28T09:43:54;6.40;;;2.05;;
68763;SDS011;55754;52.038;5.566;2023-02-28T09:46:32;5.03;;;2.05;;
68763;SDS011;55754;52.038;5.566;2023-02-28T09:49:02;6.05;;;2.42;;
68763;SDS011;55754;52.038;5.566;2023-02-28T09:51:55;4.63;;;1.90;;
68763;SDS011;55754;52.038;5.566;2023-02-28T09:54:27;4.50;;;1.90;;
68763;SDS011;55754;52.038;5.566;2023-02-28T09:56:59;5.55;;;2.10;;
68763;SDS011;55754;52.038;5.566;2023-02-28T09:59:39;5.77;;;1.93;;
68763;SDS011;55754;52.038;5.566;2023-02-28T10:05:10;4.75;;;1.90;;
68763;SDS011;55754;52.038;5.566;2023-02-28T10:07:43;4.38;;;1.70;;
68763;SDS011;55754;52.038;5.566;2023-02-28T10:12:53;5.50;;;2.00;;
68763;SDS011;55754;52.038;5.566;2023-02-28T10:15:21;5.67;;;1.90;;
68763;SDS011;55754;52.038;5.566;2023-02-28T10:17:52;4.93;;;1.70;;
68763;SDS011;55754;52.038;5.566;2023-02-28T10:20:21;4.35;;;1.88;;
68763;SDS011;55754;52.038;5.566;2023-02-28T10:25:35;5.82;;;1.80;;
68763;SDS011;55754;52.038;5.566;2023-02-28T10:28:10;4.60;;;1.87;;
68763;SDS011;55754;52.038;5.566;2023-02-28T10:30:37;5.35;;;1.98;;
68763;SDS011;55754;52.038;5.566;2023-02-28T10:33:22;4.35;;;1.70;;
68763;SDS011;55754;52.038;5.566;2023-02-28T10:35:49;5.05;;;1.70;;
68763;SDS011;55754;52.038;5.566;2023-02-28T10:38:17;4.95;;;1.90;;
68763;SDS011;55754;52.038;5.566;2023-02-28T10:40:45;4.70;;;1.95;;
68763;SDS011;55754;52.038;5.566;2023-02-28T10:45:52;3.70;;;1.50;;
68763;SDS011;55754;52.038;5.566;2023-02-28T10:48:33;3.90;;;1.50;;
68763;SDS011;55754;52.038;5.566;2023-02-28T10:51:02;4.85;;;1.88;;
68763;SDS011;55754;52.038;5.566;2023-02-28T10:53:33;4.70;;;1.90;;
68763;SDS011;55754;52.038;5.566;2023-02-28T11:01:23;5.93;;;2.08;;
68763;SDS011;55754;52.038;5.566;2023-02-28T11:04:16;5.10;;;2.05;;
68763;SDS011;55754;52.038;5.566;2023-02-28T11:07:04;5.07;;;1.90;;
68763;SDS011;55754;52.038;5.566;2023-02-28T11:09:45;7.68;;;2.10;;
68763;SDS011;55754;52.038;5.566;2023-02-28T11:12:24;5.00;;;2.17;;
68763;SDS011;55754;52.038;5.566;2023-02-28T11:15:35;8.73;;;2.25;;
68763;SDS011;55754;52.038;5.566;2023-02-28T11:17:59;5.97;;;1.83;;
68763;SDS011;55754;52.038;5.566;2023-02-28T11:20:26;4.83;;;1.87;;
68763;SDS011;55754;52.038;5.566;2023-02-28T11:22:58;5.57;;;1.80;;
68763;SDS011;55754;52.038;5.566;2023-02-28T11:25:31;4.78;;;1.80;;
68763;SDS011;55754;52.038;5.566;2023-02-28T11:28:01;5.80;;;1.90;;
68763;SDS011;55754;52.038;5.566;2023-02-28T11:30:38;4.60;;;1.85;;
68763;SDS011;55754;52.038;5.566;2023-02-28T11:33:22;4.90;;;1.87;;
68763;SDS011;55754;52.038;5.566;2023-02-28T11:35:48;5.57;;;1.90;;
68763;SDS011;55754;52.038;5.566;2023-02-28T11:38:15;5.43;;;2.38;;
68763;SDS011;55754;52.038;5.566;2023-02-28T11:57:23;4.47;;;1.70;;
68763;SDS011;55754;52.038;5.566;2023-02-28T12:00:03;5.80;;;1.70;;
68763;SDS011;55754;52.038;5.566;2023-02-28T12:05:50;4.03;;;1.55;;
68763;SDS011;55754;52.038;5.566;2023-02-28T12:08:43;5.65;;;1.90;;
68763;SDS011;55754;52.038;5.566;2023-02-28T12:11:28;4.53;;;1.80;;
68763;SDS011;55754;52.038;5.566;2023-02-28T12:23:37;5.18;;;2.05;;
68763;SDS011;55754;52.038;5.566;2023-02-28T12:28:17;4.30;;;1.70;;
68763;SDS011;55754;52.038;5.566;2023-02-28T12:33:34;4.97;;;2.00;;
68763;SDS011;55754;52.038;5.566;2023-02-28T12:36:09;5.57;;;2.22;;
68763;SDS011;55754;52.038;5.566;2023-02-28T12:43:42;6.60;;;2.40;;
68763;SDS011;55754;52.038;5.566;2023-02-28T12:46:15;4.30;;;1.80;;
68763;SDS011;55754;52.038;5.566;2023-02-28T12:48:47;6.68;;;2.42;;
68763;SDS011;55754;52.038;5.566;2023-02-28T12:51:17;5.73;;;2.10;;
68763;SDS011;55754;52.038;5.566;2023-02-28T13:04:57;5.10;;;2.20;;
68763;SDS011;55754;52.038;5.566;2023-02-28T13:08:12;5.00;;;2.10;;
68763;SDS011;55754;52.038;5.566;2023-02-28T13:10:46;5.28;;;2.30;;
68763;SDS011;55754;52.038;5.566;2023-02-28T13:13:22;4.60;;;2.03;;
68763;SDS011;55754;52.038;5.566;2023-02-28T13:15:58;5.47;;;2.47;;
68763;SDS011;55754;52.038;5.566;2023-02-28T13:18:33;5.40;;;2.30;;
68763;SDS011;55754;52.038;5.566;2023-02-28T13:21:10;5.40;;;2.28;;
68763;SDS011;55754;52.038;5.566;2023-02-28T13:29:02;6.05;;;2.60;;
68763;SDS011;55754;52.038;5.566;2023-02-28T13:34:37;6.18;;;2.30;;
68763;SDS011;55754;52.038;5.566;2023-02-28T13:37:33;6.15;;;2.30;;
68763;SDS011;55754;52.038;5.566;2023-02-28T13:47:32;5.93;;;2.42;;
68763;SDS011;55754;52.038;5.566;2023-02-28T13:50:23;5.03;;;2.50;;
68763;SDS011;55754;52.038;5.566;2023-02-28T13:58:49;5.67;;;2.40;;
68763;SDS011;55754;52.038;5.566;2023-02-28T14:01:30;6.28;;;2.50;;
68763;SDS011;55754;52.038;5.566;2023-02-28T14:04:29;5.38;;;2.30;;
68763;SDS011;55754;52.038;5.566;2023-02-28T14:07:26;6.00;;;2.03;;
68763;SDS011;55754;52.038;5.566;2023-02-28T14:09:57;5.13;;;2.25;;
68763;SDS011;55754;52.038;5.566;2023-02-28T14:18:21;4.78;;;2.03;;
68763;SDS011;55754;52.038;5.566;2023-02-28T14:20:49;5.97;;;2.30;;
68763;SDS011;55754;52.038;5.566;2023-02-28T14:23:22;6.30;;;2.30;;
68763;SDS011;55754;52.038;5.566;2023-02-28T14:31:43;4.57;;;2.05;;
68763;SDS011;55754;52.038;5.566;2023-02-28T14:34:30;4.88;;;2.17;;
68763;SDS011;55754;52.038;5.566;2023-02-28T14:37:23;4.65;;;1.83;;
68763;SDS011;55754;52.038;5.566;2023-02-28T14:39:55;6.00;;;2.00;;
68763;SDS011;55754;52.038;5.566;2023-02-28T14:42:31;5.43;;;2.10;;
68763;SDS011;55754;52.038;5.566;2023-02-28T14:44:58;5.13;;;2.00;;
68763;SDS011;55754;52.038;5.566;2023-02-28T14:47:26;4.95;;;2.20;;
68763;SDS011;55754;52.038;5.566;2023-02-28T14:50:00;6.30;;;2.80;;
68763;SDS011;55754;52.038;5.566;2023-02-28T14:52:29;8.63;;;3.03;;
68763;SDS011;55754;52.038;5.566;2023-02-28T14:54:59;6.35;;;2.20;;
68763;SDS011;55754;52.038;5.566;2023-02-28T14:59:57;5.28;;;2.10;;
68763;SDS011;55754;52.038;5.566;2023-02-28T15:02:35;5.57;;;2.47;;
68763;SDS011;55754;52.038;5.566;2023-02-28T15:07:43;4.75;;;2.13;;
68763;SDS011;55754;52.038;5.566;2023-02-28T15:10:20;7.90;;;2.35;;
68763;SDS011;55754;52.038;5.566;2023-02-28T15:13:11;6.43;;;2.17;;
68763;SDS011;55754;52.038;5.566;2023-02-28T15:15:47;5.97;;;2.38;;
68763;SDS011;55754;52.038;5.566;2023-02-28T15:21:15;5.85;;;2.15;;
68763;SDS011;55754;52.038;5.566;2023-02-28T15:23:49;5.22;;;2.13;;
68763;SDS011;55754;52.038;5.566;2023-02-28T15:26:22;4.88;;;2.08;;
68763;SDS011;55754;52.038;5.566;2023-02-28T15:29:00;5.28;;;2.17;;
68763;SDS011;55754;52.038;5.566;2023-02-28T15:31:32;5.40;;;1.97;;
68763;SDS011;55754;52.038;5.566;2023-02-28T15:34:03;4.72;;;2.03;;
68763;SDS011;55754;52.038;5.566;2023-02-28T15:36:32;4.97;;;2.15;;
68763;SDS011;55754;52.038;5.566;2023-02-28T15:39:02;6.65;;;3.28;;
68763;SDS011;55754;52.038;5.566;2023-02-28T15:41:42;4.97;;;2.22;;
68763;SDS011;55754;52.038;5.566;2023-02-28T15:47:01;6.13;;;2.40;;
68763;SDS011;55754;52.038;5.566;2023-02-28T15:49:39;5.15;;;2.55;;
68763;SDS011;55754;52.038;5.566;2023-02-28T15:52:12;5.77;;;2.20;;
68763;SDS011;55754;52.038;5.566;2023-02-28T15:54:41;5.45;;;2.20;;
68763;SDS011;55754;52.038;5.566;2023-02-28T15:57:11;6.43;;;2.20;;
68763;SDS011;55754;52.038;5.566;2023-02-28T15:59:42;7.88;;;2.30;;
68763;SDS011;55754;52.038;5.566;2023-02-28T16:02:31;5.50;;;2.50;;
68763;SDS011;55754;52.038;5.566;2023-02-28T16:07:34;5.88;;;2.20;;
68763;SDS011;55754;52.038;5.566;2023-02-28T16:10:01;5.53;;;2.30;;
68763;SDS011;55754;52.038;5.566;2023-02-28T16:12:28;5.03;;;2.08;;
68763;SDS011;55754;52.038;5.566;2023-02-28T16:14:56;9.07;;;3.80;;
68763;SDS011;55754;52.038;5.566;2023-02-28T16:17:27;5.13;;;2.20;;
68763;SDS011;55754;52.038;5.566;2023-02-28T16:19:54;6.28;;;2.60;;
68763;SDS011;55754;52.038;5.566;2023-02-28T16:22:20;5.50;;;2.35;;
68763;SDS011;55754;52.038;5.566;2023-02-28T16:24:46;9.68;;;2.90;;
68763;SDS011;55754;52.038;5.566;2023-02-28T16:27:20;5.77;;;2.30;;
68763;SDS011;55754;52.038;5.566;2023-02-28T16:29:51;6.03;;;2.50;;
68763;SDS011;55754;52.038;5.566;2023-02-28T16:32:18;6.00;;;2.53;;
68763;SDS011;55754;52.038;5.566;2023-02-28T16:34:44;5.27;;;2.10;;
68763;SDS011;55754;52.038;5.566;2023-02-28T16:37:14;5.30;;;2.38;;
68763;SDS011;55754;52.038;5.566;2023-02-28T16:39:41;5.70;;;2.47;;
68763;SDS011;55754;52.038;5.566;2023-02-28T16:42:10;6.13;;;2.50;;
68763;SDS011;55754;52.038;5.566;2023-02-28T16:44:50;6.72;;;2.60;;
68763;SDS011;55754;52.038;5.566;2023-02-28T16:47:17;5.30;;;2.17;;
68763;SDS011;55754;52.038;5.566;2023-02-28T16:49:43;5.50;;;2.58;;
68763;SDS011;55754;52.038;5.566;2023-02-28T16:52:09;6.20;;;2.10;;
68763;SDS011;55754;52.038;5.566;2023-02-28T16:54:36;6.75;;;2.40;;
68763;SDS011;55754;52.038;5.566;2023-02-28T16:57:02;6.28;;;2.65;;
68763;SDS011;55754;52.038;5.566;2023-02-28T16:59:29;6.18;;;2.67;;
68763;SDS011;55754;52.038;5.566;2023-02-28T17:01:55;5.65;;;2.60;;
68763;SDS011;55754;52.038;5.566;2023-02-28T17:04:25;10.13;;;2.27;;
68763;SDS011;55754;52.038;5.566;2023-02-28T17:06:52;5.47;;;2.28;;
68763;SDS011;55754;52.038;5.566;2023-02-28T17:09:19;5.97;;;2.53;;
68763;SDS011;55754;52.038;5.566;2023-02-28T17:11:46;6.60;;;2.30;;
68763;SDS011;55754;52.038;5.566;2023-02-28T17:14:12;5.20;;;2.20;;
68763;SDS011;55754;52.038;5.566;2023-02-28T17:16:38;5.88;;;2.40;;
68763;SDS011;55754;52.038;5.566;2023-02-28T17:19:06;5.03;;;2.30;;
68763;SDS011;55754;52.038;5.566;2023-02-28T17:21:35;5.57;;;2.35;;
68763;SDS011;55754;52.038;5.566;2023-02-28T17:24:01;7.80;;;2.30;;
68763;SDS011;55754;52.038;5.566;2023-02-28T17:26:27;5.63;;;2.22;;
68763;SDS011;55754;52.038;5.566;2023-02-28T17:28:53;6.50;;;2.37;;
68763;SDS011;55754;52.038;5.566;2023-02-28T17:31:21;8.85;;;2.63;;
68763;SDS011;55754;52.038;5.566;2023-02-28T17:33:47;7.55;;;3.00;;
68763;SDS011;55754;52.038;5.566;2023-02-28T17:36:13;7.13;;;2.80;;